Zaliv Vostok — A8RM6 — position and weather

sailwx.info

Track history (hours):
 
Tides and Currents Weather Stations Pressure Air Temp Water Temp Dewpoint Dewpoint Depression Visibility Wind Speed Wind Dir Waves Ship Positions

Zaliv Vostok

Last reported at 2016-Jun-17 21:30 UTC. Time now 2016-Jul-01 19:01 UTC.
Position N 01°56' E 102°18'.
Warning: this ship's position is 13 days out of date.

Length 243 m; draft 8.6 m.

Type: Tanker. MMSI: 636014127.

Date/timePositionNaut miles runAvg speedWind from/ knotsBaromVisibWave heightAir tempDewpointWater temp
2016-Jun-17 21:30N 01°56' E 102°18'1311.1
2016-Jun-17 20:17N 01°50' E 102°30'911.8
2016-Jun-17 19:31N 01°46' E 102°39'6911.4
2016-Jun-17 13:27N 01°11' E 103°39'8 9.3
2016-Jun-17 12:34N 01°10' E 103°47'1110.7
2016-Jun-17 11:33N 01°14' E 103°57'9 1.2
2016-Jun-17 04:26N 01°18' E 104°05'0 0.0
2016-Jun-17 00:21N 01°18' E 104°05'0 0.0
2016-Jun-16 23:26N 01°18' E 104°05'0 0.1
2016-Jun-16 22:27N 01°18' E 104°04'0 0.1
2016-Jun-16 21:30N 01°18' E 104°05'0 0.0
2016-Jun-16 20:18N 01°18' E 104°05'0 0.0
2016-Jun-16 18:32N 01°18' E 104°05'0 0.0
2016-Jun-16 17:24N 01°18' E 104°05'0 0.0
2016-Jun-16 16:10N 01°18' E 104°05'0 0.0
2016-Jun-16 15:33N 01°18' E 104°05'0 0.0
2016-Jun-16 14:20N 01°18' E 104°04'  
2016-Jun-08 14:30N 01°14' E 104°01'1110.7
2016-Jun-08 13:26N 01°11' E 103°50'  
Track history (hours):
 
Tides and Currents Weather Stations Pressure Air Temp Water Temp Dewpoint Dewpoint Depression Visibility Wind Speed Wind Dir Waves Ship Positions

Zaliv Vostok

Last reported at 2016-Jun-17 21:30 UTC. Time now 2016-Jul-01 19:01 UTC.
Position N 01°56' E 102°18'.
Warning: this ship's position is 13 days out of date.

Length 243 m; draft 8.6 m.

Type: Tanker. MMSI: 636014127.

Date/timePositionNaut miles runAvg speedWind from/ knotsBaromVisibWave heightAir tempDewpointWater temp
2016-Jun-17 21:30N 01°56' E 102°18'1311.1
2016-Jun-17 20:17N 01°50' E 102°30'911.8
2016-Jun-17 19:31N 01°46' E 102°39'6911.4
2016-Jun-17 13:27N 01°11' E 103°39'8 9.3
2016-Jun-17 12:34N 01°10' E 103°47'1110.7
2016-Jun-17 11:33N 01°14' E 103°57'9 1.2
2016-Jun-17 04:26N 01°18' E 104°05'0 0.0
2016-Jun-17 00:21N 01°18' E 104°05'0 0.0
2016-Jun-16 23:26N 01°18' E 104°05'0 0.1
2016-Jun-16 22:27N 01°18' E 104°04'0 0.1
2016-Jun-16 21:30N 01°18' E 104°05'0 0.0
2016-Jun-16 20:18N 01°18' E 104°05'0 0.0
2016-Jun-16 18:32N 01°18' E 104°05'0 0.0
2016-Jun-16 17:24N 01°18' E 104°05'0 0.0
2016-Jun-16 16:10N 01°18' E 104°05'0 0.0
2016-Jun-16 15:33N 01°18' E 104°05'0 0.0
2016-Jun-16 14:20N 01°18' E 104°04'  
2016-Jun-08 14:30N 01°14' E 104°01'1110.7
2016-Jun-08 13:26N 01°11' E 103°50'  

Dump ship's entire track history